Gulf Shores, AL

3:56 AM CST on December 07, 2016 (GMT -0600)
Edwards

Weather History for KJKA - June, 2013

Change the Weather History Date:

Tuesday, June 18, 2013

  Actual Average (KPNS) Record (KPNS)
Temperature  
Mean Temperature 81 °F 81 °F  
Max Temperature 87 °F 89 °F 100 °F (1953)
Min Temperature 75 °F 73 °F 66 °F (1955)
Cooling Degree Days 16 16  
Month to date cooling degree days 266  
Year to date cooling degree days 714  
Since 1 June cooling degree days 266  
Growing Degree Days 31 (Base 50)    
Moisture  
Dew Point 71 °F    
Average Humidity 67    
Maximum Humidity 89    
Minimum Humidity 49    
Precipitation  
Precipitation 0.07 in 0.24 in 3.55 in (1937)
Month to date precipitation 3.63  
Year to date precipitation 27.63  
Sea Level Pressure  
Sea Level Pressure 29.97 in    
Wind  
Wind Speed 9 mph (SW)    
Max Wind Speed 16 mph    
Max Gust Speed 22 mph    
Visibility 10 miles    
Events Rain , Thunderstorm    
T = Trace of Precipitation, MM = Missing Value Source: NWS Daily Summary

Daily Weather History Graph

Daily Weather History Graph

Search for Another Location

Airport or City:

Trip Planner

Search our weather history database for the weather conditions in past years. The results will help you decide how hot, cold, wet, or windy it might be!

Date:

Astronomy

Jun. 18, 2013 Rise Set
Actual Time 5:48 AM CDT 7:54 PM CDT
Civil Twilight 5:21 AM CDT 8:22 PM CDT
Nautical Twilight 4:47 AM CDT 8:56 PM CDT
Astronomical Twilight 4:11 AM CDT 9:32 PM CDT
Moon 2:54 PM CDT (6/18) 1:39 AM CDT (6/18)
Length of Visible Light 15h 01m
Length of Day
14h 06m
Waxing Gibbous, 71% of the Moon is Illuminated
Jun 18
Waxing Gibbous
Jun 23
Full
Jun 29
Last Quarter
Jul 8
New
Jul 15
First Quarter

Hourly Weather History & Observations

Time (CDT) Temp. Heat Index Dew Point Humidity Pressure Visibility Wind Dir Wind Speed Gust Speed Precip Events Conditions
12:15 AM 80.6 °F 84.6 °F 71.6 °F 74% 29.99 in 10.0 mi SSW 8.1 mph 16.1 mph N/A   Clear
12:35 AM 80.6 °F 84.6 °F 71.6 °F 74% 29.98 in 10.0 mi SSW 6.9 mph - N/A   Scattered Clouds
12:55 AM 80.6 °F 84.6 °F 71.6 °F 74% 29.98 in 10.0 mi SSW 5.8 mph - N/A   Mostly Cloudy
1:15 AM 77.0 °F - 73.4 °F 89% 29.97 in 7.0 mi SSW 5.8 mph - 0.03 in Rain Light Rain
1:35 AM 77.0 °F - 73.4 °F 89% 29.97 in 10.0 mi South 9.2 mph - 0.04 in   Mostly Cloudy
1:55 AM 78.8 °F - 73.4 °F 83% 29.97 in 10.0 mi SSW 6.9 mph - 0.04 in   Scattered Clouds
2:15 AM 80.6 °F 84.6 °F 71.6 °F 74% 29.97 in 10.0 mi South 9.2 mph - N/A   Mostly Cloudy
2:35 AM 80.6 °F 84.6 °F 71.6 °F 74% 29.96 in 10.0 mi South 8.1 mph - N/A   Scattered Clouds
2:55 AM 80.6 °F 84.6 °F 71.6 °F 74% 29.97 in 10.0 mi SSW 8.1 mph - N/A   Scattered Clouds
3:15 AM 80.6 °F 84.6 °F 71.6 °F 74% 29.96 in 10.0 mi SSW 9.2 mph - N/A   Mostly Cloudy
3:35 AM 80.6 °F 84.6 °F 71.6 °F 74% 29.97 in 10.0 mi South 6.9 mph - N/A   Mostly Cloudy
3:55 AM 80.6 °F 84.6 °F 71.6 °F 74% 29.96 in 10.0 mi SSW 8.1 mph 18.4 mph N/A   Scattered Clouds
4:15 AM 80.6 °F 84.6 °F 71.6 °F 74% 29.96 in 10.0 mi South 9.2 mph - N/A   Scattered Clouds
4:35 AM 80.6 °F 84.6 °F 71.6 °F 74% 29.96 in 10.0 mi South 11.5 mph 17.3 mph N/A   Scattered Clouds
4:55 AM 80.6 °F 84.6 °F 71.6 °F 74% 29.96 in 10.0 mi SSW 11.5 mph - N/A   Scattered Clouds
5:15 AM 77.0 °F - 71.6 °F 83% 29.97 in 7.0 mi WSW 3.5 mph 18.4 mph 0.03 in Rain Light Rain
5:35 AM 75.2 °F - 71.6 °F 89% 29.97 in 10.0 mi Calm Calm - 0.03 in Rain Light Rain
5:55 AM 77.0 °F - 71.6 °F 83% 29.98 in 10.0 mi West 4.6 mph - 0.03 in   Mostly Cloudy
6:15 AM 77.0 °F - 73.4 °F 89% 29.98 in 10.0 mi WSW 8.1 mph - N/A   Scattered Clouds
6:35 AM 78.8 °F - 71.6 °F 78% 29.99 in 10.0 mi WSW 10.4 mph - N/A   Scattered Clouds
6:55 AM 78.8 °F - 71.6 °F 78% 29.99 in 10.0 mi WSW 10.4 mph - N/A   Clear
7:15 AM 80.6 °F 84.6 °F 71.6 °F 74% 30.00 in 10.0 mi North - - N/A   Clear
7:35 AM 80.6 °F 83.9 °F 69.8 °F 70% 30.01 in 10.0 mi WSW 10.4 mph - N/A Thunderstorm Clear
7:55 AM 82.4 °F 87.2 °F 71.6 °F 70% 30.02 in 10.0 mi WSW 10.4 mph - N/A   Mostly Cloudy
8:15 AM 82.4 °F 87.2 °F 71.6 °F 70% 30.02 in 10.0 mi WSW 9.2 mph - N/A   Scattered Clouds
8:35 AM 82.4 °F 87.2 °F 71.6 °F 70% 30.02 in 10.0 mi WSW 9.2 mph - N/A   Scattered Clouds
8:55 AM 84.2 °F 89.6 °F 71.6 °F 66% 30.02 in 10.0 mi WSW 12.7 mph - N/A   Scattered Clouds
9:15 AM 84.2 °F 89.6 °F 71.6 °F 66% 30.02 in 10.0 mi North - - N/A   Mostly Cloudy
9:35 AM 84.2 °F 88.4 °F 69.8 °F 62% 30.02 in 10.0 mi North - - N/A   Mostly Cloudy
9:55 AM 84.2 °F 89.6 °F 71.6 °F 66% 30.02 in 10.0 mi West 16.1 mph - N/A   Mostly Cloudy
10:15 AM 84.2 °F 88.4 °F 69.8 °F 62% 30.03 in 10.0 mi WNW 11.5 mph 17.3 mph N/A   Scattered Clouds
10:35 AM 84.2 °F 88.4 °F 69.8 °F 62% 30.02 in 10.0 mi West 9.2 mph - N/A   Clear
10:55 AM 86.0 °F 90.4 °F 69.8 °F 58% 30.02 in 10.0 mi West 13.8 mph 18.4 mph N/A   Clear
11:15 AM 86.0 °F 91.8 °F 71.6 °F 62% 30.01 in 10.0 mi West 10.4 mph 16.1 mph N/A   Clear
11:35 AM 86.0 °F 90.4 °F 69.8 °F 58% 30.01 in 10.0 mi West 12.7 mph 19.6 mph N/A   Clear
11:55 AM 86.0 °F 90.4 °F 69.8 °F 58% 30.00 in 10.0 mi West 13.8 mph - N/A   Clear
12:15 PM 86.0 °F 89.4 °F 68.0 °F 55% 30.00 in 10.0 mi North - - N/A   Scattered Clouds
12:35 PM 87.8 °F 91.4 °F 68.0 °F 52% 30.00 in 10.0 mi West 13.8 mph 21.9 mph N/A   Clear
12:55 PM 87.8 °F 90.4 °F 66.2 °F 49% 29.99 in 10.0 mi West 15.0 mph - N/A   Clear
1:15 PM 87.8 °F 91.4 °F 68.0 °F 52% 29.99 in 10.0 mi West 13.8 mph - N/A   Clear
1:35 PM 87.8 °F 91.4 °F 68.0 °F 52% 29.98 in 10.0 mi West 11.5 mph - N/A   Scattered Clouds
1:55 PM 87.8 °F 91.4 °F 68.0 °F 52% 29.98 in 10.0 mi North - - N/A   Scattered Clouds
2:15 PM 87.8 °F 91.4 °F 68.0 °F 52% 29.97 in 10.0 mi North - - N/A   Scattered Clouds
2:35 PM 87.8 °F 91.4 °F 68.0 °F 52% 29.97 in 10.0 mi SW 15.0 mph 19.6 mph N/A   Scattered Clouds
2:55 PM 86.0 °F 89.4 °F 68.0 °F 55% 29.96 in 10.0 mi SSW 13.8 mph 20.7 mph N/A   Scattered Clouds
3:15 PM 86.0 °F 89.4 °F 68.0 °F 55% 29.96 in 10.0 mi North - - N/A   Mostly Cloudy
3:35 PM 86.0 °F 89.4 °F 68.0 °F 55% 29.95 in 10.0 mi North - - N/A   Mostly Cloudy
3:55 PM 86.0 °F 90.4 °F 69.8 °F 58% 29.95 in 10.0 mi SSW 15.0 mph 19.6 mph N/A   Mostly Cloudy
4:15 PM 86.0 °F 90.4 °F 69.8 °F 58% 29.94 in 10.0 mi SSW 11.5 mph - N/A   Mostly Cloudy
4:35 PM 86.0 °F 90.4 °F 69.8 °F 58% 29.93 in 10.0 mi SSW 16.1 mph 21.9 mph N/A   Mostly Cloudy
4:55 PM 86.0 °F 90.4 °F 69.8 °F 58% 29.93 in 10.0 mi SW 13.8 mph - N/A   Scattered Clouds
5:15 PM 86.0 °F 90.4 °F 69.8 °F 58% 29.93 in 10.0 mi SW 11.5 mph - N/A   Scattered Clouds
5:35 PM 86.0 °F 90.4 °F 69.8 °F 58% 29.92 in 10.0 mi SSW 15.0 mph - N/A   Clear
5:55 PM 86.0 °F 90.4 °F 69.8 °F 58% 29.92 in 10.0 mi SSW 9.2 mph - N/A   Scattered Clouds
6:15 PM 86.0 °F 90.4 °F 69.8 °F 58% 29.92 in 10.0 mi SW 11.5 mph 18.4 mph N/A   Scattered Clouds
6:35 PM 84.2 °F 88.4 °F 69.8 °F 62% 29.92 in 10.0 mi SW 11.5 mph 17.3 mph N/A   Clear
6:55 PM 84.2 °F 89.6 °F 71.6 °F 66% 29.93 in 10.0 mi South 11.5 mph 16.1 mph N/A   Clear
7:15 PM 82.4 °F 87.2 °F 71.6 °F 70% 29.93 in 10.0 mi SSW 13.8 mph - N/A   Scattered Clouds
7:35 PM 82.4 °F 87.2 °F 71.6 °F 70% 29.93 in 10.0 mi SSW 10.4 mph 17.3 mph N/A   Clear
7:55 PM 82.4 °F 87.2 °F 71.6 °F 70% 29.94 in 10.0 mi SSW 9.2 mph 17.3 mph N/A   Clear
8:15 PM 82.4 °F 87.2 °F 71.6 °F 70% 29.94 in 10.0 mi SSW 8.1 mph - N/A   Clear
8:35 PM 82.4 °F 87.2 °F 71.6 °F 70% 29.94 in 10.0 mi SSW 10.4 mph - N/A   Clear
8:55 PM 82.4 °F 87.2 °F 71.6 °F 70% 29.95 in 10.0 mi SSW 8.1 mph 16.1 mph N/A   Scattered Clouds
9:15 PM 82.4 °F 87.2 °F 71.6 °F 70% 29.95 in 10.0 mi SSW 9.2 mph - N/A   Scattered Clouds
9:35 PM 82.4 °F 87.2 °F 71.6 °F 70% 29.96 in 10.0 mi SSW 10.4 mph - N/A   Scattered Clouds
9:55 PM 82.4 °F 87.2 °F 71.6 °F 70% 29.97 in 10.0 mi SW 11.5 mph 17.3 mph N/A   Scattered Clouds
10:15 PM 82.4 °F 87.2 °F 71.6 °F 70% 29.97 in 10.0 mi SW 10.4 mph 18.4 mph N/A   Mostly Cloudy
10:35 PM 82.4 °F 87.2 °F 71.6 °F 70% 29.98 in 10.0 mi SW 13.8 mph 17.3 mph N/A Thunderstorm Overcast
10:55 PM 82.4 °F 87.2 °F 71.6 °F 70% 29.97 in 10.0 mi SW 10.4 mph 20.7 mph N/A   Overcast
11:15 PM 82.4 °F 87.2 °F 71.6 °F 70% 29.98 in 10.0 mi WSW 9.2 mph - N/A   Overcast
11:35 PM 77.0 °F - 68.0 °F 74% 29.99 in 10.0 mi NNE 9.2 mph - N/A   Overcast
11:55 PM 75.2 °F - 68.0 °F 78% 30.00 in 10.0 mi North 10.4 mph - N/A Thunderstorm Overcast